ZIW YJUR-YPJT
Flight info
| Callsign | ZIW |
|---|---|
| Flight time | 1h 0m |
| Altitude | 3000 |
| Route | LANC DCT TOS DCT AKMW DCT BUB DCT OBC DCT CYB DCT CTE DCT FRE DCT POWR DCT ADWD |
| Aircraft | DA42/L-SBDGRY/S |
Departure
| Time | 2026-04-30 06:15 |
|---|---|
| Airport | Jurien Bay Airport (YJUR) |
Arrival
| Time | 2026-04-30 07:16 |
|---|---|
| Airport | Perth Jandakot Airport (YPJT) |
| Time | Latitude | Longitude | Altitude | Speed | Heading |
|---|---|---|---|---|---|
| 2026-04-30 06:11 | -30.30038 | 115.05562 | 13 ft | 0 kts | 296° |
| 2026-04-30 06:13 | -30.30038 | 115.05559 | 13 ft | 0 kts | 300° |
| 2026-04-30 06:13 | -30.30027 | 115.05566 | 13 ft | 3 kts | 51° |
| 2026-04-30 06:13 | -30.30003 | 115.05593 | 14 ft | 5 kts | 28° |
| 2026-04-30 06:13 | -30.29954 | 115.05616 | 15 ft | 10 kts | 20° |
| 2026-04-30 06:14 | -30.29883 | 115.05644 | 15 ft | 10 kts | 18° |
| 2026-04-30 06:14 | -30.29822 | 115.05682 | 14 ft | 7 kts | 99° |
| 2026-04-30 06:14 | -30.29829 | 115.05702 | 14 ft | 2 kts | 117° |
| 2026-04-30 06:14 | -30.29844 | 115.05729 | 13 ft | 4 kts | 164° |
| 2026-04-30 06:15 | -30.29913 | 115.05703 | 13 ft | 41 kts | 200° |
| 2026-04-30 06:15 | -30.30367 | 115.05511 | 37 ft | 84 kts | 199° |
| 2026-04-30 06:15 | -30.30879 | 115.05293 | 346 ft | 77 kts | 194° |
| 2026-04-30 06:15 | -30.31455 | 115.05154 | 657 ft | 87 kts | 189° |
| 2026-04-30 06:16 | -30.32039 | 115.05089 | 1058 ft | 86 kts | 187° |
| 2026-04-30 06:16 | -30.32657 | 115.05000 | 1354 ft | 96 kts | 189° |
| 2026-04-30 06:16 | -30.33355 | 115.04888 | 1513 ft | 110 kts | 185° |
| 2026-04-30 06:16 | -30.34158 | 115.04835 | 1550 ft | 118 kts | 182° |
| 2026-04-30 06:17 | -30.34983 | 115.04832 | 1558 ft | 120 kts | 180° |
| 2026-04-30 06:17 | -30.35836 | 115.04848 | 1487 ft | 125 kts | 180° |
| 2026-04-30 06:17 | -30.36708 | 115.04836 | 1477 ft | 123 kts | 183° |
| 2026-04-30 06:17 | -30.37554 | 115.04807 | 1490 ft | 121 kts | 182° |
| 2026-04-30 06:18 | -30.38412 | 115.04774 | 1490 ft | 121 kts | 183° |
| 2026-04-30 06:18 | -30.39260 | 115.04744 | 1489 ft | 121 kts | 183° |
| 2026-04-30 06:18 | -30.40109 | 115.04713 | 1486 ft | 122 kts | 183° |
| 2026-04-30 06:18 | -30.40956 | 115.04684 | 1485 ft | 122 kts | 183° |
| 2026-04-30 06:19 | -30.41806 | 115.04653 | 1485 ft | 121 kts | 183° |
| 2026-04-30 06:19 | -30.42645 | 115.04627 | 1485 ft | 121 kts | 180° |
| 2026-04-30 06:19 | -30.43468 | 115.04889 | 1489 ft | 123 kts | 163° |
| 2026-04-30 06:19 | -30.44279 | 115.05250 | 1484 ft | 123 kts | 162° |
| 2026-04-30 06:20 | -30.45073 | 115.05618 | 1485 ft | 123 kts | 162° |
| 2026-04-30 06:20 | -30.45871 | 115.05984 | 1489 ft | 123 kts | 162° |
| 2026-04-30 06:20 | -30.46672 | 115.06351 | 1488 ft | 123 kts | 162° |
| 2026-04-30 06:20 | -30.47481 | 115.06716 | 1490 ft | 123 kts | 162° |
| 2026-04-30 06:21 | -30.48273 | 115.07076 | 1485 ft | 123 kts | 162° |
| 2026-04-30 06:21 | -30.49079 | 115.07447 | 1485 ft | 123 kts | 162° |
| 2026-04-30 06:21 | -30.49879 | 115.07819 | 1487 ft | 123 kts | 162° |
| 2026-04-30 06:21 | -30.50680 | 115.08195 | 1488 ft | 124 kts | 162° |
| 2026-04-30 06:22 | -30.51482 | 115.08568 | 1484 ft | 124 kts | 162° |
| 2026-04-30 06:22 | -30.52283 | 115.08943 | 1487 ft | 124 kts | 162° |
| 2026-04-30 06:22 | -30.53077 | 115.09319 | 1486 ft | 124 kts | 162° |
| 2026-04-30 06:22 | -30.53881 | 115.09701 | 1485 ft | 124 kts | 161° |
| 2026-04-30 06:23 | -30.54685 | 115.10078 | 1487 ft | 124 kts | 162° |
| 2026-04-30 06:23 | -30.55492 | 115.10457 | 1486 ft | 124 kts | 162° |
| 2026-04-30 06:23 | -30.56302 | 115.10832 | 1489 ft | 124 kts | 162° |
| 2026-04-30 06:23 | -30.57108 | 115.11204 | 1491 ft | 124 kts | 162° |
| 2026-04-30 06:24 | -30.57904 | 115.11568 | 1492 ft | 124 kts | 162° |
| 2026-04-30 06:24 | -30.58710 | 115.11937 | 1487 ft | 124 kts | 162° |
| 2026-04-30 06:24 | -30.59512 | 115.12309 | 1486 ft | 124 kts | 162° |
| 2026-04-30 06:24 | -30.60322 | 115.12686 | 1485 ft | 124 kts | 162° |
| 2026-04-30 06:25 | -30.61122 | 115.13061 | 1483 ft | 124 kts | 162° |
| 2026-04-30 06:25 | -30.61923 | 115.13437 | 1484 ft | 124 kts | 162° |
| 2026-04-30 06:25 | -30.62729 | 115.13816 | 1485 ft | 124 kts | 162° |
| 2026-04-30 06:25 | -30.63534 | 115.14195 | 1488 ft | 124 kts | 162° |
| 2026-04-30 06:26 | -30.64339 | 115.14573 | 1488 ft | 124 kts | 162° |
| 2026-04-30 06:26 | -30.65147 | 115.14954 | 1492 ft | 124 kts | 162° |
| 2026-04-30 06:26 | -30.65952 | 115.15335 | 1487 ft | 125 kts | 162° |
| 2026-04-30 06:26 | -30.66761 | 115.15723 | 1490 ft | 124 kts | 162° |
| 2026-04-30 06:27 | -30.67562 | 115.16101 | 1489 ft | 125 kts | 162° |
| 2026-04-30 06:27 | -30.68370 | 115.16480 | 1489 ft | 125 kts | 162° |
| 2026-04-30 06:27 | -30.69176 | 115.16858 | 1490 ft | 124 kts | 162° |
| 2026-04-30 06:27 | -30.69980 | 115.17230 | 1487 ft | 124 kts | 162° |
| 2026-04-30 06:28 | -30.70782 | 115.17604 | 1492 ft | 124 kts | 162° |
| 2026-04-30 06:28 | -30.71584 | 115.17976 | 1494 ft | 124 kts | 162° |
| 2026-04-30 06:28 | -30.72392 | 115.18360 | 1491 ft | 124 kts | 162° |
| 2026-04-30 06:28 | -30.73194 | 115.18744 | 1490 ft | 124 kts | 162° |
| 2026-04-30 06:29 | -30.73995 | 115.19127 | 1494 ft | 125 kts | 162° |
| 2026-04-30 06:29 | -30.74803 | 115.19514 | 1495 ft | 125 kts | 162° |
| 2026-04-30 06:29 | -30.75614 | 115.19903 | 1491 ft | 126 kts | 162° |
| 2026-04-30 06:29 | -30.76425 | 115.20293 | 1488 ft | 126 kts | 162° |
| 2026-04-30 06:30 | -30.77236 | 115.20682 | 1489 ft | 125 kts | 162° |
| 2026-04-30 06:30 | -30.78052 | 115.21072 | 1488 ft | 125 kts | 161° |
| 2026-04-30 06:30 | -30.78856 | 115.21454 | 1489 ft | 125 kts | 161° |
| 2026-04-30 06:30 | -30.79667 | 115.21838 | 1487 ft | 125 kts | 162° |
| 2026-04-30 06:31 | -30.80480 | 115.22222 | 1490 ft | 125 kts | 162° |
| 2026-04-30 06:31 | -30.81288 | 115.22603 | 1488 ft | 125 kts | 162° |
| 2026-04-30 06:31 | -30.82098 | 115.22984 | 1489 ft | 125 kts | 162° |
| 2026-04-30 06:31 | -30.82910 | 115.23366 | 1491 ft | 125 kts | 162° |
| 2026-04-30 06:32 | -30.83720 | 115.23749 | 1490 ft | 125 kts | 162° |
| 2026-04-30 06:32 | -30.84506 | 115.24174 | 1488 ft | 127 kts | 151° |
| 2026-04-30 06:32 | -30.85209 | 115.24795 | 1491 ft | 127 kts | 147° |
| 2026-04-30 06:32 | -30.85909 | 115.25440 | 1490 ft | 128 kts | 147° |
| 2026-04-30 06:33 | -30.86608 | 115.26089 | 1489 ft | 128 kts | 147° |
| 2026-04-30 06:33 | -30.87308 | 115.26739 | 1493 ft | 128 kts | 147° |
| 2026-04-30 06:33 | -30.88008 | 115.27390 | 1491 ft | 129 kts | 147° |
| 2026-04-30 06:33 | -30.88706 | 115.28043 | 1493 ft | 129 kts | 147° |
| 2026-04-30 06:34 | -30.89406 | 115.28693 | 1491 ft | 128 kts | 147° |
| 2026-04-30 06:34 | -30.90104 | 115.29346 | 1490 ft | 128 kts | 147° |
| 2026-04-30 06:34 | -30.90804 | 115.29996 | 1491 ft | 127 kts | 147° |
| 2026-04-30 06:34 | -30.91500 | 115.30646 | 1490 ft | 127 kts | 147° |
| 2026-04-30 06:35 | -30.92191 | 115.31291 | 1486 ft | 127 kts | 147° |
| 2026-04-30 06:35 | -30.92881 | 115.31931 | 1486 ft | 128 kts | 147° |
| 2026-04-30 06:35 | -30.93587 | 115.32586 | 1488 ft | 128 kts | 147° |
| 2026-04-30 06:35 | -30.94284 | 115.33231 | 1487 ft | 128 kts | 147° |
| 2026-04-30 06:36 | -30.94991 | 115.33884 | 1489 ft | 129 kts | 147° |
| 2026-04-30 06:36 | -30.95695 | 115.34537 | 1484 ft | 129 kts | 147° |
| 2026-04-30 06:36 | -30.96400 | 115.35187 | 1484 ft | 130 kts | 147° |
| 2026-04-30 06:36 | -30.97112 | 115.35846 | 1486 ft | 130 kts | 147° |
| 2026-04-30 06:37 | -30.97820 | 115.36508 | 1483 ft | 130 kts | 147° |
| 2026-04-30 06:37 | -30.98523 | 115.37167 | 1485 ft | 130 kts | 147° |
| 2026-04-30 06:37 | -30.99241 | 115.37837 | 1487 ft | 130 kts | 147° |
| 2026-04-30 06:37 | -30.99948 | 115.38500 | 1489 ft | 130 kts | 147° |
| 2026-04-30 06:38 | -31.00656 | 115.39163 | 1487 ft | 130 kts | 147° |
| 2026-04-30 06:38 | -31.01365 | 115.39825 | 1486 ft | 130 kts | 147° |
| 2026-04-30 06:38 | -31.02069 | 115.40477 | 1485 ft | 130 kts | 147° |
| 2026-04-30 06:38 | -31.02778 | 115.41138 | 1483 ft | 130 kts | 147° |
| 2026-04-30 06:39 | -31.03484 | 115.41797 | 1486 ft | 129 kts | 147° |
| 2026-04-30 06:39 | -31.04188 | 115.42455 | 1489 ft | 129 kts | 147° |
| 2026-04-30 06:39 | -31.04897 | 115.43115 | 1487 ft | 130 kts | 147° |
| 2026-04-30 06:39 | -31.05604 | 115.43778 | 1483 ft | 130 kts | 147° |
| 2026-04-30 06:40 | -31.06312 | 115.44443 | 1480 ft | 130 kts | 147° |
| 2026-04-30 06:40 | -31.07019 | 115.45106 | 1484 ft | 130 kts | 147° |
| 2026-04-30 06:40 | -31.07724 | 115.45770 | 1483 ft | 130 kts | 147° |
| 2026-04-30 06:40 | -31.08433 | 115.46438 | 1473 ft | 130 kts | 147° |
| 2026-04-30 06:41 | -31.09134 | 115.47098 | 1467 ft | 129 kts | 147° |
| 2026-04-30 06:41 | -31.09840 | 115.47761 | 1471 ft | 128 kts | 147° |
| 2026-04-30 06:41 | -31.10538 | 115.48417 | 1474 ft | 128 kts | 147° |
| 2026-04-30 06:41 | -31.11229 | 115.49063 | 1484 ft | 128 kts | 147° |
| 2026-04-30 06:42 | -31.11928 | 115.49722 | 1490 ft | 128 kts | 147° |
| 2026-04-30 06:42 | -31.12629 | 115.50375 | 1487 ft | 129 kts | 147° |
| 2026-04-30 06:42 | -31.13334 | 115.51029 | 1483 ft | 129 kts | 147° |
| 2026-04-30 06:42 | -31.14039 | 115.51687 | 1484 ft | 130 kts | 147° |
| 2026-04-30 06:43 | -31.14831 | 115.52140 | 1480 ft | 124 kts | 180° |
| 2026-04-30 06:43 | -31.15670 | 115.51975 | 1487 ft | 122 kts | 196° |
| 2026-04-30 06:43 | -31.16491 | 115.51706 | 1484 ft | 122 kts | 197° |
| 2026-04-30 06:43 | -31.17255 | 115.51311 | 1487 ft | 121 kts | 218° |
| 2026-04-30 06:44 | -31.17698 | 115.50466 | 1491 ft | 124 kts | 246° |
| 2026-04-30 06:44 | -31.17978 | 115.49521 | 1494 ft | 125 kts | 248° |
| 2026-04-30 06:44 | -31.18251 | 115.48545 | 1495 ft | 126 kts | 248° |
| 2026-04-30 06:44 | -31.18520 | 115.47575 | 1492 ft | 127 kts | 248° |
| 2026-04-30 06:45 | -31.18795 | 115.46584 | 1492 ft | 126 kts | 248° |
| 2026-04-30 06:45 | -31.19064 | 115.45610 | 1494 ft | 127 kts | 248° |
| 2026-04-30 06:45 | -31.19333 | 115.44624 | 1491 ft | 127 kts | 248° |
| 2026-04-30 06:45 | -31.19809 | 115.43809 | 1486 ft | 122 kts | 210° |
| 2026-04-30 06:46 | -31.20639 | 115.43694 | 1493 ft | 123 kts | 174° |
| 2026-04-30 06:46 | -31.21482 | 115.43919 | 1494 ft | 125 kts | 169° |
| 2026-04-30 06:46 | -31.22321 | 115.44213 | 1492 ft | 126 kts | 167° |
| 2026-04-30 06:46 | -31.23160 | 115.44550 | 1491 ft | 127 kts | 165° |
| 2026-04-30 06:47 | -31.23989 | 115.44916 | 1493 ft | 127 kts | 163° |
| 2026-04-30 06:47 | -31.24812 | 115.45302 | 1488 ft | 128 kts | 162° |
| 2026-04-30 06:47 | -31.25633 | 115.45704 | 1490 ft | 127 kts | 163° |
| 2026-04-30 06:47 | -31.26447 | 115.46114 | 1487 ft | 128 kts | 161° |
| 2026-04-30 06:48 | -31.27274 | 115.46538 | 1484 ft | 128 kts | 162° |
| 2026-04-30 06:48 | -31.28083 | 115.46959 | 1487 ft | 127 kts | 161° |
| 2026-04-30 06:48 | -31.28895 | 115.47385 | 1489 ft | 127 kts | 160° |
| 2026-04-30 06:48 | -31.29707 | 115.47817 | 1490 ft | 128 kts | 160° |
| 2026-04-30 06:49 | -31.30508 | 115.48243 | 1486 ft | 127 kts | 160° |
| 2026-04-30 06:49 | -31.31324 | 115.48681 | 1489 ft | 127 kts | 160° |
| 2026-04-30 06:49 | -31.32133 | 115.49113 | 1490 ft | 127 kts | 160° |
| 2026-04-30 06:49 | -31.32943 | 115.49548 | 1485 ft | 127 kts | 160° |
| 2026-04-30 06:50 | -31.33744 | 115.49981 | 1488 ft | 127 kts | 161° |
| 2026-04-30 06:50 | -31.34542 | 115.50410 | 1488 ft | 127 kts | 160° |
| 2026-04-30 06:50 | -31.35354 | 115.50848 | 1482 ft | 127 kts | 161° |
| 2026-04-30 06:50 | -31.36151 | 115.51279 | 1493 ft | 127 kts | 160° |
| 2026-04-30 06:51 | -31.36957 | 115.51714 | 1489 ft | 127 kts | 160° |
| 2026-04-30 06:51 | -31.37771 | 115.52155 | 1491 ft | 127 kts | 161° |
| 2026-04-30 06:51 | -31.38582 | 115.52590 | 1488 ft | 127 kts | 161° |
| 2026-04-30 06:51 | -31.39390 | 115.53024 | 1491 ft | 132 kts | 160° |
| 2026-04-30 06:52 | -31.40270 | 115.53495 | 1499 ft | 143 kts | 160° |
| 2026-04-30 06:52 | -31.41191 | 115.53992 | 1492 ft | 149 kts | 160° |
| 2026-04-30 06:52 | -31.42156 | 115.54512 | 1490 ft | 152 kts | 160° |
| 2026-04-30 06:52 | -31.43120 | 115.55033 | 1488 ft | 153 kts | 160° |
| 2026-04-30 06:53 | -31.44091 | 115.55559 | 1489 ft | 155 kts | 159° |
| 2026-04-30 06:53 | -31.45077 | 115.56093 | 1486 ft | 155 kts | 160° |
| 2026-04-30 06:53 | -31.46057 | 115.56625 | 1485 ft | 155 kts | 160° |
| 2026-04-30 06:53 | -31.47036 | 115.57156 | 1486 ft | 155 kts | 159° |
| 2026-04-30 06:54 | -31.48024 | 115.57691 | 1487 ft | 156 kts | 159° |
| 2026-04-30 06:54 | -31.48172 | 115.57772 | 1487 ft | 156 kts | 160° |
| 2026-04-30 06:54 | -31.48319 | 115.57853 | 1487 ft | 156 kts | 160° |
| 2026-04-30 06:54 | -31.49304 | 115.58419 | 1482 ft | 158 kts | 153° |
| 2026-04-30 06:55 | -31.50234 | 115.59122 | 1484 ft | 158 kts | 153° |
| 2026-04-30 06:55 | -31.51156 | 115.59825 | 1483 ft | 159 kts | 152° |
| 2026-04-30 06:55 | -31.52085 | 115.60529 | 1501 ft | 157 kts | 154° |
| 2026-04-30 06:55 | -31.53015 | 115.61194 | 1541 ft | 156 kts | 153° |
| 2026-04-30 06:56 | -31.53377 | 115.61468 | 1516 ft | 158 kts | 152° |
| 2026-04-30 06:56 | -31.54322 | 115.62148 | 1455 ft | 161 kts | 153° |
| 2026-04-30 06:56 | -31.55263 | 115.62895 | 1400 ft | 163 kts | 150° |
| 2026-04-30 06:56 | -31.56191 | 115.63588 | 1452 ft | 158 kts | 153° |
| 2026-04-30 06:57 | -31.57132 | 115.64246 | 1453 ft | 158 kts | 155° |
| 2026-04-30 06:57 | -31.58084 | 115.64893 | 1485 ft | 156 kts | 154° |
| 2026-04-30 06:57 | -31.58991 | 115.65614 | 1475 ft | 158 kts | 147° |
| 2026-04-30 06:57 | -31.59886 | 115.66363 | 1479 ft | 158 kts | 149° |
| 2026-04-30 06:58 | -31.60785 | 115.67105 | 1476 ft | 158 kts | 150° |
| 2026-04-30 06:58 | -31.61748 | 115.67718 | 1481 ft | 154 kts | 167° |
| 2026-04-30 06:58 | -31.62768 | 115.68106 | 1483 ft | 155 kts | 166° |
| 2026-04-30 06:58 | -31.63813 | 115.68481 | 1484 ft | 155 kts | 166° |
| 2026-04-30 06:59 | -31.64843 | 115.68851 | 1487 ft | 155 kts | 167° |
| 2026-04-30 06:59 | -31.65887 | 115.69226 | 1489 ft | 155 kts | 167° |
| 2026-04-30 06:59 | -31.66915 | 115.69588 | 1488 ft | 155 kts | 167° |
| 2026-04-30 06:59 | -31.67956 | 115.69952 | 1490 ft | 156 kts | 167° |
| 2026-04-30 07:00 | -31.69013 | 115.70322 | 1491 ft | 156 kts | 167° |
| 2026-04-30 07:00 | -31.70049 | 115.70684 | 1489 ft | 156 kts | 167° |
| 2026-04-30 07:00 | -31.71105 | 115.71053 | 1494 ft | 157 kts | 167° |
| 2026-04-30 07:00 | -31.72154 | 115.71420 | 1495 ft | 157 kts | 167° |
| 2026-04-30 07:01 | -31.73214 | 115.71745 | 1494 ft | 156 kts | 173° |
| 2026-04-30 07:01 | -31.74287 | 115.71995 | 1490 ft | 156 kts | 173° |
| 2026-04-30 07:01 | -31.75342 | 115.72233 | 1515 ft | 154 kts | 173° |
| 2026-04-30 07:01 | -31.76368 | 115.72473 | 1666 ft | 146 kts | 173° |
| 2026-04-30 07:02 | -31.77360 | 115.72700 | 1779 ft | 144 kts | 173° |
| 2026-04-30 07:02 | -31.78359 | 115.72927 | 1880 ft | 144 kts | 173° |
| 2026-04-30 07:02 | -31.79344 | 115.73154 | 1968 ft | 144 kts | 173° |
| 2026-04-30 07:02 | -31.80361 | 115.73387 | 1991 ft | 149 kts | 173° |
| 2026-04-30 07:03 | -31.81395 | 115.73624 | 1993 ft | 151 kts | 173° |
| 2026-04-30 07:03 | -31.82439 | 115.73864 | 1994 ft | 153 kts | 173° |
| 2026-04-30 07:03 | -31.83483 | 115.74104 | 1993 ft | 154 kts | 173° |
| 2026-04-30 07:03 | -31.84545 | 115.74350 | 1994 ft | 154 kts | 173° |
| 2026-04-30 07:04 | -31.85600 | 115.74593 | 1993 ft | 154 kts | 173° |
| 2026-04-30 07:04 | -31.86656 | 115.74836 | 1994 ft | 155 kts | 173° |
| 2026-04-30 07:04 | -31.87731 | 115.75083 | 1994 ft | 155 kts | 173° |
| 2026-04-30 07:04 | -31.88782 | 115.75326 | 1994 ft | 156 kts | 173° |
| 2026-04-30 07:05 | -31.90934 | 115.75346 | 1993 ft | 154 kts | 187° |
| 2026-04-30 07:05 | -31.92001 | 115.75225 | 1994 ft | 153 kts | 188° |
| 2026-04-30 07:05 | -31.93060 | 115.75111 | 1994 ft | 153 kts | 188° |
| 2026-04-30 07:06 | -31.94126 | 115.74993 | 1919 ft | 155 kts | 189° |
| 2026-04-30 07:06 | -31.95156 | 115.74819 | 1476 ft | 143 kts | 190° |
| 2026-04-30 07:06 | -31.96089 | 115.74683 | 1420 ft | 135 kts | 189° |
| 2026-04-30 07:06 | -31.97035 | 115.74572 | 1446 ft | 137 kts | 188° |
| 2026-04-30 07:07 | -31.97993 | 115.74477 | 1469 ft | 138 kts | 187° |
| 2026-04-30 07:07 | -31.98951 | 115.74403 | 1467 ft | 139 kts | 186° |
| 2026-04-30 07:07 | -31.99932 | 115.74354 | 1467 ft | 140 kts | 185° |
| 2026-04-30 07:07 | -32.00915 | 115.74326 | 1470 ft | 143 kts | 184° |
| 2026-04-30 07:08 | -32.01908 | 115.74295 | 1496 ft | 145 kts | 185° |
| 2026-04-30 07:08 | -32.02930 | 115.74200 | 1471 ft | 146 kts | 192° |
| 2026-04-30 07:08 | -32.03932 | 115.73969 | 1451 ft | 148 kts | 194° |
| 2026-04-30 07:08 | -32.04955 | 115.73783 | 1434 ft | 149 kts | 187° |
| 2026-04-30 07:09 | -32.06005 | 115.73843 | 1453 ft | 150 kts | 175° |
| 2026-04-30 07:09 | -32.07033 | 115.74101 | 1458 ft | 150 kts | 172° |
| 2026-04-30 07:09 | -32.08067 | 115.74392 | 1426 ft | 154 kts | 168° |
| 2026-04-30 07:09 | -32.09082 | 115.74813 | 1457 ft | 154 kts | 163° |
| 2026-04-30 07:10 | -32.10070 | 115.75309 | 1452 ft | 156 kts | 159° |
| 2026-04-30 07:10 | -32.10968 | 115.76057 | 1470 ft | 161 kts | 135° |
| 2026-04-30 07:10 | -32.11321 | 115.77309 | 1446 ft | 169 kts | 89° |
| 2026-04-30 07:10 | -32.10927 | 115.78607 | 1479 ft | 166 kts | 64° |
| 2026-04-30 07:11 | -32.10344 | 115.79765 | 1468 ft | 165 kts | 61° |
| 2026-04-30 07:11 | -32.09739 | 115.80919 | 1455 ft | 164 kts | 62° |
| 2026-04-30 07:11 | -32.09250 | 115.82124 | 1478 ft | 160 kts | 75° |
| 2026-04-30 07:11 | -32.09035 | 115.83406 | 1340 ft | 156 kts | 91° |
| 2026-04-30 07:12 | -32.09043 | 115.84646 | 1072 ft | 147 kts | 97° |
| 2026-04-30 07:12 | -32.09068 | 115.85794 | 939 ft | 134 kts | 94° |
| 2026-04-30 07:12 | -32.08843 | 115.86817 | 872 ft | 124 kts | 56° |
| 2026-04-30 07:12 | -32.08322 | 115.87509 | 903 ft | 107 kts | 51° |
| 2026-04-30 07:13 | -32.07843 | 115.88178 | 948 ft | 108 kts | 51° |
| 2026-04-30 07:13 | -32.07336 | 115.88854 | 1008 ft | 109 kts | 49° |
| 2026-04-30 07:13 | -32.06840 | 115.89539 | 1036 ft | 112 kts | 52° |
| 2026-04-30 07:13 | -32.06411 | 115.90256 | 964 ft | 102 kts | 78° |
| 2026-04-30 07:14 | -32.06578 | 115.90980 | 798 ft | 89 kts | 144° |
| 2026-04-30 07:14 | -32.07072 | 115.91364 | 690 ft | 81 kts | 165° |
| 2026-04-30 07:14 | -32.07569 | 115.91320 | 669 ft | 71 kts | 212° |
| 2026-04-30 07:14 | -32.07910 | 115.90872 | 577 ft | 75 kts | 233° |
| 2026-04-30 07:15 | -32.08207 | 115.90389 | 495 ft | 69 kts | 231° |
| 2026-04-30 07:15 | -32.08498 | 115.89916 | 406 ft | 70 kts | 232° |
| 2026-04-30 07:15 | -32.08770 | 115.89464 | 318 ft | 64 kts | 231° |
| 2026-04-30 07:15 | -32.09036 | 115.89037 | 235 ft | 64 kts | 232° |
| 2026-04-30 07:16 | -32.09299 | 115.88604 | 136 ft | 63 kts | 232° |
| 2026-04-30 07:16 | -32.09533 | 115.88228 | 105 ft | 39 kts | 233° |
| 2026-04-30 07:16 | -32.09649 | 115.88031 | 105 ft | 20 kts | 236° |
| 2026-04-30 07:16 | -32.09645 | 115.87956 | 105 ft | 9 kts | 327° |
| 2026-04-30 07:17 | -32.09589 | 115.87940 | 105 ft | 9 kts | 40° |
| 2026-04-30 07:17 | -32.09539 | 115.87960 | 105 ft | 7 kts | 20° |
| 2026-04-30 07:17 | -32.09514 | 115.87954 | 105 ft | 0 kts | 238° |